Time;durP1;ratioP1;P1;durP2;ratioP2;P2;SDS_P1;SDS_P2;PMS_P1;PMS_P2;Temp;Humidity;BMP_temperature;BMP_pressure;BME280_temperature;BME280_humidity;BME280_pressure;Samples;Min_cycle;Max_cycle;Signal;HPM_P1;HPM_P2
2023/08/11 00:00:08;;;;;;;4.45;3.97;;;18.40;99.90;;;;;;5137158;27;20533;-81
2023/08/11 00:02:40;;;;;;;5.30;4.10;;;18.40;99.90;;;;;;5125283;27;20697;-81
2023/08/11 00:05:10;;;;;;;5.25;4.38;;;18.40;99.90;;;;;;5108333;27;20475;-82
2023/08/11 00:07:35;;;;;;;4.40;3.92;;;18.30;99.90;;;;;;5121748;27;20042;-81
2023/08/11 00:10:02;;;;;;;4.30;3.38;;;18.20;99.90;;;;;;5105203;27;20055;-81
2023/08/11 00:12:28;;;;;;;5.13;4.13;;;18.20;99.90;;;;;;5113254;28;20043;-81
2023/08/11 00:14:53;;;;;;;4.30;3.88;;;18.10;99.90;;;;;;5115462;27;20058;-81
2023/08/11 00:17:19;;;;;;;4.75;4.25;;;18.00;99.90;;;;;;5123310;27;20058;-81
2023/08/11 00:19:45;;;;;;;4.90;4.15;;;18.00;99.90;;;;;;5131561;27;20046;-81
2023/08/11 00:22:11;;;;;;;5.95;4.30;;;17.90;99.90;;;;;;5106595;27;20055;-81
2023/08/11 00:24:36;;;;;;;4.32;3.92;;;17.80;99.90;;;;;;5120383;27;20051;-81
2023/08/11 00:27:02;;;;;;;5.15;3.88;;;17.70;99.90;;;;;;5121074;27;20043;-81
2023/08/11 00:29:31;;;;;;;6.90;4.07;;;17.70;99.90;;;;;;5110119;27;20130;-81
2023/08/11 00:31:56;;;;;;;5.88;4.90;;;17.60;99.90;;;;;;5116948;27;20513;-81
2023/08/11 00:34:22;;;;;;;3.88;3.58;;;17.50;99.90;;;;;;5120733;27;20051;-81
2023/08/11 00:36:48;;;;;;;5.63;4.30;;;17.40;99.90;;;;;;5121520;27;20058;-81
2023/08/11 00:39:14;;;;;;;5.38;4.60;;;17.40;99.90;;;;;;5104648;28;20059;-81
2023/08/11 00:41:40;;;;;;;4.80;4.40;;;17.30;99.90;;;;;;5128692;27;20224;-81
2023/08/11 00:44:06;;;;;;;5.60;5.05;;;17.20;99.90;;;;;;5110920;28;20060;-81
2023/08/11 00:46:32;;;;;;;7.05;5.68;;;17.10;99.90;;;;;;5094763;27;20051;-81
2023/08/11 00:48:58;;;;;;;6.47;5.30;;;17.10;99.90;;;;;;5137725;27;20118;-81
2023/08/11 00:51:24;;;;;;;8.05;6.80;;;17.00;99.90;;;;;;5125594;27;20491;-81
2023/08/11 00:53:51;;;;;;;6.55;5.80;;;16.90;99.90;;;;;;5141618;27;20053;-83
2023/08/11 00:56:21;;;;;;;7.00;6.30;;;16.90;99.90;;;;;;5132370;27;20396;-82
2023/08/11 00:58:52;;;;;;;6.00;5.50;;;16.80;99.90;;;;;;5106548;27;20139;-82
2023/08/11 01:01:18;;;;;;;6.35;5.68;;;16.70;99.90;;;;;;5123150;27;20513;-82
2023/08/11 01:03:47;;;;;;;7.15;5.90;;;16.70;99.90;;;;;;5138284;27;20050;-81
2023/08/11 01:06:25;;;;;;;8.18;6.35;;;16.60;99.90;;;;;;5142153;27;20103;-81
2023/08/11 01:09:35;;;;;;;7.32;6.40;;;16.50;99.90;;;;;;5135441;27;20222;-81
2023/08/11 01:12:20;;;;;;;6.95;6.32;;;16.50;99.90;;;;;;5092682;27;20083;-81
2023/08/11 01:14:56;;;;;;;7.00;6.30;;;16.40;99.90;;;;;;5107404;27;20453;-81
2023/08/11 01:17:23;;;;;;;8.90;7.53;;;16.40;99.90;;;;;;5117398;27;20043;-81
2023/08/11 01:19:49;;;;;;;6.90;6.30;;;16.30;99.90;;;;;;5138808;27;20053;-82
2023/08/11 01:22:19;;;;;;;7.93;6.90;;;16.30;99.90;;;;;;5137418;27;20051;-81
2023/08/11 01:24:45;;;;;;;7.05;6.43;;;16.20;99.90;;;;;;5133669;27;20142;-81
2023/08/11 01:27:12;;;;;;;9.48;7.10;;;16.20;99.90;;;;;;5115905;27;20336;-81
2023/08/11 01:29:39;;;;;;;8.38;7.57;;;16.20;99.90;;;;;;5145478;27;20078;-82
2023/08/11 01:32:06;;;;;;;8.95;6.90;;;16.10;99.90;;;;;;5114353;27;20400;-82
2023/08/11 01:34:31;;;;;;;6.88;6.18;;;16.10;99.90;;;;;;5121407;27;20838;-81
2023/08/11 01:37:00;;;;;;;7.72;6.78;;;16.10;99.90;;;;;;5130575;27;20154;-82
2023/08/11 01:39:29;;;;;;;8.27;7.13;;;16.00;99.90;;;;;;5136383;27;20050;-81
2023/08/11 01:41:55;;;;;;;10.55;7.50;;;15.90;99.90;;;;;;5130986;27;20054;-82
2023/08/11 01:44:22;;;;;;;8.10;7.32;;;15.90;99.90;;;;;;5101405;27;20089;-81
2023/08/11 01:46:50;;;;;;;9.75;7.28;;;15.90;99.90;;;;;;5112503;27;20404;-82
2023/08/11 01:49:16;;;;;;;7.78;6.97;;;15.80;99.90;;;;;;5126048;27;21254;-82
2023/08/11 01:51:43;;;;;;;9.00;7.93;;;15.80;99.90;;;;;;5132817;27;20105;-81
2023/08/11 01:54:08;;;;;;;9.80;8.43;;;15.80;99.90;;;;;;5110390;27;20428;-81
2023/08/11 01:56:39;;;;;;;10.43;9.23;;;15.70;99.90;;;;;;5142384;27;20078;-81
2023/08/11 01:59:11;;;;;;;11.30;9.00;;;15.70;99.90;;;;;;5115668;27;20074;-82
2023/08/11 02:01:45;;;;;;;10.55;9.45;;;15.70;99.90;;;;;;5126547;27;20043;-81
2023/08/11 02:04:13;;;;;;;10.05;9.02;;;15.70;99.90;;;;;;5125352;27;20047;-82
2023/08/11 02:06:40;;;;;;;15.65;10.73;;;15.70;99.90;;;;;;5107509;27;20042;-82
2023/08/11 02:09:08;;;;;;;12.77;10.07;;;15.70;99.90;;;;;;5111332;27;20046;-81
2023/08/11 02:11:35;;;;;;;11.90;10.70;;;15.70;99.90;;;;;;5114431;27;20181;-82
2023/08/11 02:14:01;;;;;;;11.77;9.77;;;15.70;99.90;;;;;;5120911;27;20039;-81
2023/08/11 02:16:27;;;;;;;12.15;10.82;;;15.70;99.90;;;;;;5113646;27;20064;-82
2023/08/11 02:18:52;;;;;;;12.05;9.40;;;15.70;99.90;;;;;;5119965;27;20530;-82
2023/08/11 02:21:18;;;;;;;13.52;10.57;;;15.70;99.90;;;;;;5095529;27;20054;-82
2023/08/11 02:23:44;;;;;;;12.20;9.77;;;15.60;99.90;;;;;;5116105;27;20146;-82
2023/08/11 02:26:09;;;;;;;12.07;10.45;;;15.60;99.90;;;;;;5132650;27;20090;-82
2023/08/11 02:28:35;;;;;;;10.60;9.52;;;15.60;99.90;;;;;;5121511;27;20055;-82
2023/08/11 02:31:02;;;;;;;15.90;11.95;;;15.60;99.90;;;;;;5123448;27;20554;-82
2023/08/11 02:33:28;;;;;;;11.45;10.27;;;15.60;99.90;;;;;;5140405;27;20054;-81
2023/08/11 02:35:54;;;;;;;12.50;11.25;;;15.60;99.90;;;;;;5126398;27;20057;-82
2023/08/11 02:38:19;;;;;;;11.45;10.25;;;15.60;99.90;;;;;;5136153;27;20058;-82
2023/08/11 02:40:45;;;;;;;12.70;11.43;;;15.60;99.90;;;;;;5107039;27;20122;-82
2023/08/11 02:43:11;;;;;;;12.57;11.18;;;15.60;99.90;;;;;;5107456;27;20047;-81
2023/08/11 02:45:37;;;;;;;12.68;11.38;;;15.60;99.90;;;;;;5126695;27;20495;-82
2023/08/11 02:48:02;;;;;;;10.98;9.82;;;15.60;99.90;;;;;;5127470;27;20051;-82
2023/08/11 02:50:28;;;;;;;11.20;10.00;;;15.60;99.90;;;;;;5132730;27;20055;-82
2023/08/11 02:52:54;;;;;;;12.77;10.82;;;15.60;99.90;;;;;;5116789;27;20550;-82
2023/08/11 02:55:19;;;;;;;11.85;10.10;;;15.60;99.90;;;;;;5114362;27;20055;-82
2023/08/11 02:57:46;;;;;;;13.43;10.52;;;15.50;99.90;;;;;;5136027;27;20038;-83
2023/08/11 03:00:13;;;;;;;10.52;9.45;;;15.50;99.90;;;;;;5114203;27;20047;-83
2023/08/11 03:02:46;;;;;;;12.45;11.05;;;15.50;99.90;;;;;;5123094;27;20043;-82
2023/08/11 03:05:11;;;;;;;;;;;15.50;99.90;;;;;;5122731;27;20047;-82
2023/08/11 03:07:38;;;;;;;12.68;9.98;;;15.50;99.90;;;;;;5132584;27;19923;-82
2023/08/11 03:10:05;;;;;;;11.25;9.63;;;15.50;99.90;;;;;;5105792;27;20043;-82
2023/08/11 03:12:30;;;;;;;10.00;9.10;;;15.50;99.90;;;;;;5110852;27;20848;-82
2023/08/11 03:14:56;;;;;;;12.95;10.15;;;15.50;99.90;;;;;;5089748;27;20055;-83
2023/08/11 03:17:23;;;;;;;11.63;9.65;;;15.50;99.90;;;;;;5121693;27;22381;-82
2023/08/11 03:19:48;;;;;;;11.75;9.38;;;15.50;99.90;;;;;;5110238;27;20495;-83
2023/08/11 03:22:17;;;;;;;10.05;8.15;;;15.50;99.90;;;;;;5137608;27;20050;-82
2023/08/11 03:24:44;;;;;;;10.55;9.40;;;15.50;99.90;;;;;;5123146;27;20043;-82
2023/08/11 03:27:12;;;;;;;11.02;8.82;;;15.50;99.90;;;;;;5121140;27;20039;-82
2023/08/11 03:29:38;;;;;;;9.85;8.48;;;15.50;99.90;;;;;;5121016;27;20055;-83
2023/08/11 03:32:04;;;;;;;11.73;9.18;;;15.50;99.90;;;;;;5127499;27;20055;-83
2023/08/11 03:34:30;;;;;;;10.52;9.45;;;15.50;99.90;;;;;;5128534;27;20055;-83
2023/08/11 03:36:56;;;;;;;9.57;8.68;;;15.50;99.90;;;;;;5126872;27;20073;-82
2023/08/11 03:39:21;;;;;;;11.07;9.40;;;15.50;99.90;;;;;;5114602;27;20064;-82
2023/08/11 03:41:47;;;;;;;9.55;8.55;;;15.50;99.90;;;;;;5110824;27;20116;-83
2023/08/11 03:44:13;;;;;;;12.77;9.32;;;15.50;99.90;;;;;;5101385;27;20848;-82
2023/08/11 03:46:39;;;;;;;12.07;8.55;;;15.50;99.90;;;;;;5114153;27;20059;-83
2023/08/11 03:49:06;;;;;;;9.93;8.55;;;15.50;99.90;;;;;;5122817;27;20051;-82
2023/08/11 03:51:32;;;;;;;12.95;9.25;;;15.50;99.90;;;;;;5140130;27;20043;-83
2023/08/11 03:54:02;;;;;;;11.18;9.70;;;15.50;99.90;;;;;;5137452;27;20054;-81
2023/08/11 03:56:28;;;;;;;9.55;8.15;;;15.50;99.90;;;;;;5103613;28;20051;-83
2023/08/11 03:58:54;;;;;;;12.63;9.05;;;15.40;99.90;;;;;;5127286;27;20041;-82
2023/08/11 04:01:20;;;;;;;10.35;9.35;;;15.40;99.90;;;;;;5116176;28;20051;-83
2023/08/11 04:03:45;;;;;;;10.60;9.57;;;15.40;99.90;;;;;;5132907;27;20038;-83
2023/08/11 04:06:11;;;;;;;11.65;9.18;;;15.40;99.90;;;;;;5121391;27;20090;-82
2023/08/11 04:08:37;;;;;;;10.20;9.00;;;15.40;99.90;;;;;;5126539;27;20043;-83
2023/08/11 04:11:02;;;;;;;9.30;8.30;;;15.40;99.90;;;;;;5107687;27;20046;-82
2023/08/11 04:13:28;;;;;;;12.25;9.90;;;15.40;99.90;;;;;;5130897;27;20146;-83
2023/08/11 04:15:54;;;;;;;9.93;8.93;;;15.40;99.90;;;;;;5133460;27;20051;-83
2023/08/11 04:18:20;;;;;;;10.55;7.90;;;15.40;99.90;;;;;;5131954;27;20047;-83
2023/08/11 04:20:47;;;;;;;9.52;8.63;;;15.40;99.90;;;;;;5112642;27;20744;-82
2023/08/11 04:23:13;;;;;;;9.35;8.23;;;15.40;99.90;;;;;;5123989;27;20497;-82
2023/08/11 04:25:39;;;;;;;8.88;7.97;;;15.40;99.90;;;;;;5133181;27;20788;-82
2023/08/11 04:28:05;;;;;;;10.73;7.88;;;15.50;99.90;;;;;;5119130;27;20047;-83
2023/08/11 04:30:30;;;;;;;8.85;7.70;;;15.50;99.90;;;;;;5119528;27;20061;-82
2023/08/11 04:32:57;;;;;;;12.48;8.48;;;15.40;99.90;;;;;;5127954;27;20074;-83
2023/08/11 04:35:22;;;;;;;14.27;8.77;;;15.50;99.90;;;;;;5126359;27;20059;-83
2023/08/11 04:37:48;;;;;;;12.38;8.88;;;15.40;99.90;;;;;;5126255;27;20050;-83
2023/08/11 04:40:14;;;;;;;11.55;8.38;;;15.50;99.90;;;;;;5125404;27;20061;-83
2023/08/11 04:42:40;;;;;;;13.32;8.23;;;15.40;99.90;;;;;;5139855;27;20055;-83
2023/08/11 04:45:06;;;;;;;9.50;7.90;;;15.50;99.90;;;;;;5133696;27;20099;-82
2023/08/11 04:47:32;;;;;;;9.68;8.50;;;15.50;99.90;;;;;;5132043;27;20047;-82
2023/08/11 04:49:58;;;;;;;11.07;7.97;;;15.60;99.90;;;;;;5130105;27;20526;-82
2023/08/11 04:52:24;;;;;;;9.63;8.40;;;15.60;99.90;;;;;;5140622;27;20487;-83
2023/08/11 04:54:49;;;;;;;9.35;8.30;;;15.70;99.90;;;;;;5130532;27;20051;-82
2023/08/11 04:57:15;;;;;;;12.85;8.95;;;15.70;99.90;;;;;;5137297;27;20407;-83
2023/08/11 04:59:41;;;;;;;12.07;7.70;;;15.70;99.90;;;;;;5119660;27;20046;-83
2023/08/11 05:02:07;;;;;;;8.60;7.53;;;15.80;99.90;;;;;;5134273;27;20038;-83
2023/08/11 05:04:33;;;;;;;13.38;8.30;;;15.70;99.90;;;;;;5115457;27;20055;-83
2023/08/11 05:06:59;;;;;;;11.55;7.78;;;15.80;99.90;;;;;;5122163;27;20055;-82
2023/08/11 05:09:25;;;;;;;9.55;7.18;;;15.80;99.90;;;;;;5117306;27;20046;-82
2023/08/11 05:11:51;;;;;;;8.63;7.35;;;15.80;99.90;;;;;;5133410;27;20050;-82
2023/08/11 05:14:17;;;;;;;9.70;6.75;;;15.90;99.90;;;;;;5138859;27;20301;-82
2023/08/11 05:16:44;;;;;;;10.23;7.57;;;16.00;99.90;;;;;;5133696;27;20053;-82
2023/08/11 05:19:10;;;;;;;9.70;7.05;;;16.10;99.90;;;;;;5143746;27;20118;-83
2023/08/11 05:21:37;;;;;;;10.52;7.32;;;16.20;99.90;;;;;;5115334;27;20051;-82
2023/08/11 05:24:04;;;;;;;11.77;7.35;;;16.20;99.90;;;;;;5138758;27;20050;-82
2023/08/11 05:26:29;;;;;;;7.32;6.63;;;16.30;99.90;;;;;;5135201;27;20625;-82
2023/08/11 05:28:55;;;;;;;10.10;7.00;;;16.40;99.90;;;;;;5131368;27;20047;-82
2023/08/11 05:31:21;;;;;;;8.35;6.65;;;16.40;99.90;;;;;;5138141;27;20089;-82
2023/08/11 05:33:46;;;;;;;8.45;6.15;;;16.50;99.90;;;;;;5138178;27;20059;-82
2023/08/11 05:36:12;;;;;;;9.80;5.90;;;16.50;99.90;;;;;;5096153;27;20055;-81
2023/08/11 05:38:38;;;;;;;10.50;6.65;;;16.60;99.90;;;;;;5113978;27;20057;-81
2023/08/11 05:41:03;;;;;;;10.93;7.10;;;16.70;99.90;;;;;;5089402;27;20054;-81
2023/08/11 05:43:29;;;;;;;7.13;5.75;;;16.80;99.90;;;;;;5133710;27;20153;-82
2023/08/11 05:45:55;;;;;;;7.22;6.53;;;16.80;99.90;;;;;;5130286;27;20047;-81
2023/08/11 05:48:21;;;;;;;7.38;5.72;;;16.90;99.90;;;;;;5115125;27;20155;-81
2023/08/11 05:50:46;;;;;;;7.63;5.85;;;17.00;99.90;;;;;;5109480;27;20051;-81
2023/08/11 05:53:12;;;;;;;6.47;5.68;;;17.10;99.90;;;;;;5113631;27;20515;-81
2023/08/11 05:55:38;;;;;;;6.78;5.53;;;17.10;99.90;;;;;;5138679;27;20069;-81
2023/08/11 05:58:04;;;;;;;5.28;4.78;;;17.20;99.90;;;;;;5141234;27;20091;-82
2023/08/11 06:00:30;;;;;;;8.90;5.32;;;17.30;99.90;;;;;;5137144;27;20050;-82
2023/08/11 06:02:55;;;;;;;7.47;5.65;;;17.40;99.90;;;;;;5130460;27;20035;-81
2023/08/11 06:05:23;;;;;;;6.47;4.53;;;17.50;99.90;;;;;;5126455;27;20126;-82
2023/08/11 06:07:49;;;;;;;7.47;4.97;;;17.60;99.90;;;;;;5109426;27;20050;-82
2023/08/11 06:10:15;;;;;;;5.70;5.00;;;17.70;99.90;;;;;;5118806;27;20062;-82
2023/08/11 06:12:41;;;;;;;5.72;5.13;;;17.80;99.90;;;;;;5120424;27;20050;-81
2023/08/11 06:15:06;;;;;;;6.28;4.57;;;17.90;99.90;;;;;;5136685;27;20031;-81
2023/08/11 06:17:32;;;;;;;5.63;4.95;;;18.00;99.90;;;;;;5141835;27;20047;-82
2023/08/11 06:19:58;;;;;;;4.82;4.40;;;18.00;99.90;;;;;;5112673;27;20085;-81
2023/08/11 06:22:24;;;;;;;7.25;4.25;;;18.10;99.90;;;;;;5126776;27;20142;-81
2023/08/11 06:24:50;;;;;;;5.95;4.65;;;18.20;99.90;;;;;;5133659;27;20043;-82
2023/08/11 06:27:15;;;;;;;9.00;4.78;;;18.30;99.90;;;;;;5134474;27;20108;-81
2023/08/11 06:29:41;;;;;;;5.65;4.43;;;18.40;99.90;;;;;;5108333;27;20491;-81
2023/08/11 06:32:07;;;;;;;5.90;5.20;;;18.50;99.90;;;;;;5126878;27;20059;-81
2023/08/11 06:34:33;;;;;;;5.70;5.10;;;18.70;99.90;;;;;;5111483;27;20055;-82
2023/08/11 06:36:59;;;;;;;5.90;5.00;;;18.80;99.90;;;;;;5134321;27;20545;-81
2023/08/11 06:39:24;;;;;;;6.53;4.57;;;18.90;99.90;;;;;;5107488;27;20082;-81
2023/08/11 06:41:50;;;;;;;6.40;4.68;;;19.00;99.90;;;;;;5135944;27;20038;-81
2023/08/11 06:44:16;;;;;;;4.60;4.15;;;19.10;99.90;;;;;;5137559;27;20061;-82
2023/08/11 06:46:42;;;;;;;5.30;4.43;;;19.30;99.90;;;;;;5120312;27;20047;-82
2023/08/11 06:49:07;;;;;;;6.38;4.80;;;19.50;99.90;;;;;;5122277;27;20051;-81
2023/08/11 06:51:33;;;;;;;5.90;4.05;;;19.60;99.90;;;;;;5132302;27;20116;-81
2023/08/11 06:53:59;;;;;;;6.35;4.13;;;19.80;99.90;;;;;;5120200;27;20112;-81
2023/08/11 06:56:25;;;;;;;5.57;4.40;;;20.20;99.90;;;;;;5130045;27;20361;-81
2023/08/11 06:58:51;;;;;;;5.95;4.53;;;21.20;99.90;;;;;;5134058;27;20054;-81
2023/08/11 07:01:18;;;;;;;6.18;3.88;;;22.30;99.90;;;;;;5133377;27;20058;-80
2023/08/11 07:03:44;;;;;;;4.47;3.53;;;23.40;99.90;;;;;;5130870;27;20106;-82
2023/08/11 07:06:11;;;;;;;3.67;3.33;;;24.40;99.90;;;;;;5115836;27;20039;-81
2023/08/11 07:08:36;;;;;;;5.38;3.38;;;25.20;99.90;;;;;;5117910;27;20380;-82
2023/08/11 07:11:02;;;;;;;4.00;3.30;;;25.90;99.90;;;;;;5106017;27;20564;-81
2023/08/11 07:13:28;;;;;;;5.63;3.45;;;26.50;99.90;;;;;;5126671;27;20167;-82
2023/08/11 07:15:57;;;;;;;4.35;3.53;;;27.00;99.90;;;;;;5120173;27;20043;-81
2023/08/11 07:18:23;;;;;;;3.45;3.15;;;27.50;99.70;;;;;;5120326;27;20043;-82
2023/08/11 07:20:49;;;;;;;4.28;3.03;;;28.00;99.10;;;;;;5133578;27;20051;-82
2023/08/11 07:23:16;;;;;;;4.60;2.80;;;28.20;97.80;;;;;;5132827;27;20047;-81
2023/08/11 07:25:43;;;;;;;3.55;3.13;;;28.70;97.70;;;;;;5137492;27;20068;-81
2023/08/11 07:28:08;;;;;;;3.10;2.80;;;29.30;97.20;;;;;;5140101;27;20051;-82
2023/08/11 07:30:36;;;;;;;4.57;2.88;;;29.20;96.50;;;;;;5126823;27;20127;-82
2023/08/11 07:33:02;;;;;;;3.55;3.13;;;29.60;95.90;;;;;;5119942;27;20134;-81
2023/08/11 07:35:29;;;;;;;3.78;2.78;;;29.70;95.20;;;;;;5134808;27;20047;-81
2023/08/11 07:37:55;;;;;;;2.35;2.15;;;30.10;95.00;;;;;;5128976;27;20046;-81
2023/08/11 07:40:21;;;;;;;3.72;3.05;;;30.30;95.00;;;;;;5104057;27;20628;-80
2023/08/11 07:42:47;;;;;;;4.82;2.63;;;30.10;94.40;;;;;;5102444;27;20430;-81
2023/08/11 07:45:13;;;;;;;2.95;2.70;;;30.40;93.90;;;;;;5119825;27;20226;-80
2023/08/11 07:47:39;;;;;;;5.40;2.85;;;30.70;93.50;;;;;;5132696;27;20440;-80
2023/08/11 07:50:06;;;;;;;2.80;2.50;;;30.50;93.40;;;;;;5130521;27;20597;-81
2023/08/11 07:52:32;;;;;;;3.55;2.25;;;30.90;93.50;;;;;;5127433;27;20086;-82
2023/08/11 07:54:58;;;;;;;4.72;2.50;;;31.40;93.40;;;;;;5140107;27;20126;-81
2023/08/11 07:57:23;;;;;;;4.15;2.65;;;31.70;93.10;;;;;;5126861;27;20038;-79
2023/08/11 07:59:49;;;;;;;3.95;2.53;;;31.90;92.80;;;;;;5131170;27;20079;-81
2023/08/11 08:02:15;;;;;;;3.60;2.85;;;32.20;92.20;;;;;;5135385;27;20046;-81
2023/08/11 08:04:42;;;;;;;2.85;2.47;;;32.20;92.00;;;;;;5131309;27;20160;-82
2023/08/11 08:07:08;;;;;;;3.67;2.23;;;32.00;91.60;;;;;;5103673;27;20103;-82
2023/08/11 08:09:34;;;;;;;3.95;2.33;;;32.00;91.50;;;;;;5103840;28;20577;-82
2023/08/11 08:12:01;;;;;;;2.42;2.10;;;31.60;91.10;;;;;;5107155;27;20051;-82
2023/08/11 08:14:28;;;;;;;3.42;2.55;;;31.90;90.90;;;;;;5148868;27;20153;-82
2023/08/11 08:16:54;;;;;;;5.28;2.75;;;31.40;90.40;;;;;;5128936;27;20559;-82
2023/08/11 08:19:20;;;;;;;4.80;2.55;;;31.00;90.70;;;;;;5123367;27;20047;-82
2023/08/11 08:21:47;;;;;;;2.72;2.20;;;31.10;89.40;;;;;;5130436;27;20066;-81
2023/08/11 08:24:14;;;;;;;4.72;3.03;;;31.10;90.70;;;;;;5126592;27;20054;-80
2023/08/11 08:26:41;;;;;;;4.93;2.72;;;31.20;90.40;;;;;;5133709;27;20051;-81
2023/08/11 08:29:07;;;;;;;4.55;2.95;;;31.40;90.40;;;;;;5144264;27;20567;-81
2023/08/11 08:31:33;;;;;;;4.07;2.80;;;31.20;90.20;;;;;;5113209;27;20047;-81
2023/08/11 08:33:59;;;;;;;3.17;2.88;;;31.40;90.10;;;;;;5146666;27;20557;-81
2023/08/11 08:36:25;;;;;;;4.25;3.10;;;31.80;89.50;;;;;;5139335;27;20046;-81
2023/08/11 08:38:52;;;;;;;4.45;3.38;;;31.60;88.80;;;;;;5132067;27;20836;-80
2023/08/11 08:41:20;;;;;;;3.67;2.67;;;31.50;89.10;;;;;;5127886;27;20086;-80
2023/08/11 08:43:47;;;;;;;3.58;2.55;;;31.80;89.30;;;;;;5137074;27;20054;-80
2023/08/11 08:46:15;;;;;;;4.78;2.80;;;32.20;89.50;;;;;;5144203;27;20058;-79
2023/08/11 08:48:55;;;;;;;4.50;3.20;;;32.20;89.60;;;;;;5135053;27;20074;-80
2023/08/11 08:51:20;;;;;;;3.08;2.60;;;32.30;88.40;;;;;;5109489;27;20062;-78
2023/08/11 08:53:46;;;;;;;3.13;2.83;;;32.30;89.70;;;;;;5112241;27;20540;-77
2023/08/11 08:56:13;;;;;;;5.22;2.88;;;32.50;89.50;;;;;;5127237;27;20402;-79
2023/08/11 08:58:41;;;;;;;4.30;2.72;;;32.70;88.20;;;;;;5112642;27;20039;-82
2023/08/11 09:01:09;;;;;;;3.25;2.95;;;32.50;87.60;;;;;;5133859;27;20050;-81
2023/08/11 09:03:36;;;;;;;6.47;3.55;;;32.30;88.60;;;;;;5134719;27;20051;-81
2023/08/11 09:06:05;;;;;;;4.32;3.15;;;32.50;88.30;;;;;;5138730;27;20054;-80
2023/08/11 09:08:38;;;;;;;3.47;2.65;;;32.60;87.30;;;;;;5116678;27;20972;-82
2023/08/11 09:11:04;;;;;;;3.60;2.72;;;32.30;86.40;;;;;;5144945;27;20046;-81
2023/08/11 09:13:31;;;;;;;4.00;2.72;;;32.20;87.20;;;;;;5132943;27;20597;-81
2023/08/11 09:15:57;;;;;;;5.45;2.80;;;32.10;86.90;;;;;;5138388;27;20047;-79
2023/08/11 09:18:23;;;;;;;2.85;2.58;;;32.10;87.30;;;;;;5129765;27;20074;-81
2023/08/11 09:20:49;;;;;;;3.17;2.25;;;32.00;87.00;;;;;;5126032;27;20536;-80
2023/08/11 09:23:18;;;;;;;3.13;2.80;;;32.20;87.40;;;;;;5141882;27;20054;-81
2023/08/11 09:25:45;;;;;;;5.45;2.78;;;32.40;86.60;;;;;;5135104;27;20507;-81
2023/08/11 09:28:11;;;;;;;2.88;2.60;;;32.30;86.40;;;;;;5139289;27;20482;-82
2023/08/11 09:30:38;;;;;;;4.40;2.60;;;32.40;86.90;;;;;;5134508;27;20039;-81
2023/08/11 09:33:07;;;;;;;4.13;2.85;;;32.40;86.80;;;;;;5123298;27;20231;-82
2023/08/11 09:35:33;;;;;;;5.40;2.45;;;32.60;86.60;;;;;;5123431;27;20500;-82
2023/08/11 09:37:59;;;;;;;4.50;2.67;;;32.60;86.80;;;;;;5097920;27;20177;-82
2023/08/11 09:40:26;;;;;;;3.17;2.13;;;32.70;85.90;;;;;;5141083;27;20043;-81
2023/08/11 09:42:56;;;;;;;7.10;2.50;;;32.90;86.40;;;;;;5133345;27;20053;-82
2023/08/11 09:45:23;;;;;;;4.65;2.47;;;32.90;85.90;;;;;;5124769;27;20039;-82
2023/08/11 09:47:49;;;;;;;4.00;2.83;;;32.60;85.70;;;;;;5130978;27;20893;-82
2023/08/11 09:50:15;;;;;;;4.05;2.28;;;32.50;85.50;;;;;;5140089;27;20051;-82
2023/08/11 09:52:42;;;;;;;2.53;2.10;;;32.60;86.20;;;;;;5108441;27;20046;-83
2023/08/11 09:55:13;;;;;;;2.95;2.30;;;32.60;86.40;;;;;;5126272;27;20051;-81
2023/08/11 09:57:41;;;;;;;3.08;2.67;;;32.70;85.70;;;;;;5144082;27;20077;-82
2023/08/11 10:00:14;;;;;;;5.45;2.70;;;33.10;85.80;;;;;;5108660;27;20054;-81
2023/08/11 10:02:58;;;;;;;3.35;2.70;;;33.10;84.90;;;;;;5131420;27;20054;-81
2023/08/11 10:05:25;;;;;;;4.10;2.38;;;33.30;85.30;;;;;;5139924;27;20053;-81
2023/08/11 10:07:54;;;;;;;3.47;2.53;;;33.20;85.30;;;;;;5127838;27;20039;-81
2023/08/11 10:10:21;;;;;;;4.30;2.95;;;33.00;84.80;;;;;;5135983;27;20437;-83
2023/08/11 10:12:56;;;;;;;3.17;2.30;;;32.80;85.30;;;;;;5131549;27;20070;-83
2023/08/11 10:15:23;;;;;;;3.92;2.42;;;32.90;85.20;;;;;;5128661;27;20099;-83
2023/08/11 10:17:49;;;;;;;3.13;2.33;;;32.90;84.90;;;;;;5118598;27;20062;-82
2023/08/11 10:20:16;;;;;;;4.15;2.70;;;33.00;85.50;;;;;;5138959;27;20246;-82
2023/08/11 10:22:41;;;;;;;4.82;3.00;;;33.00;85.30;;;;;;5102232;27;20053;-83
2023/08/11 10:25:08;;;;;;;2.42;2.20;;;33.10;85.20;;;;;;5122606;27;20050;-82
2023/08/11 10:27:36;;;;;;;3.50;2.33;;;33.00;84.60;;;;;;5132428;27;20051;-82
2023/08/11 10:30:04;;;;;;;3.90;2.65;;;32.90;84.30;;;;;;5114294;27;20753;-83
2023/08/11 10:32:34;;;;;;;3.20;2.33;;;32.70;84.10;;;;;;5131855;27;20047;-84
2023/08/11 10:35:00;;;;;;;2.33;2.08;;;33.10;84.60;;;;;;5121912;27;20055;-82
2023/08/11 10:37:31;;;;;;;2.90;2.63;;;33.50;85.50;;;;;;5135457;27;20043;-76
2023/08/11 10:40:04;;;;;;;5.70;2.60;;;33.60;83.20;;;;;;5142927;27;20094;-74
2023/08/11 10:42:30;;;;;;;2.28;2.00;;;33.30;84.40;;;;;;5125204;27;20508;-77
2023/08/11 10:45:10;;;;;;;2.67;2.38;;;33.40;83.50;;;;;;5116387;27;20126;-75
2023/08/11 10:47:38;;;;;;;2.00;1.90;;;33.70;82.50;;;;;;5122813;27;20078;-75
2023/08/11 10:50:08;;;;;;;2.90;2.35;;;33.70;84.40;;;;;;5133173;27;20492;-74
2023/08/11 10:52:34;;;;;;;2.95;2.33;;;33.70;83.20;;;;;;5115527;27;20062;-81
2023/08/11 10:55:03;;;;;;;3.15;2.25;;;33.30;83.60;;;;;;5136217;27;20042;-83
2023/08/11 10:57:30;;;;;;;3.90;2.17;;;33.00;83.70;;;;;;5128841;27;20795;-83
2023/08/11 10:59:56;;;;;;;3.63;2.15;;;33.00;84.60;;;;;;5125817;27;20057;-82
2023/08/11 11:02:22;;;;;;;3.53;2.67;;;33.00;84.00;;;;;;5126920;27;20038;-84
2023/08/11 11:04:51;;;;;;;2.58;1.98;;;32.90;85.30;;;;;;5113347;27;20054;-84
2023/08/11 11:07:16;;;;;;;3.25;2.20;;;32.30;83.90;;;;;;5138074;27;20046;-83
2023/08/11 11:09:42;;;;;;;2.20;1.90;;;32.00;84.30;;;;;;5131126;27;20175;-86
2023/08/11 11:12:08;;;;;;;2.55;2.08;;;31.80;84.00;;;;;;5129272;27;20086;-81
2023/08/11 11:14:36;;;;;;;3.88;2.58;;;31.40;83.30;;;;;;5087057;27;20058;-82
2023/08/11 11:17:03;;;;;;;4.68;2.38;;;31.00;83.00;;;;;;5122173;27;20055;-84
2023/08/11 11:19:30;;;;;;;7.32;2.25;;;30.90;83.10;;;;;;5113024;27;20491;-82
2023/08/11 11:21:56;;;;;;;4.22;2.50;;;30.90;85.10;;;;;;5138688;27;20799;-84
2023/08/11 11:24:22;;;;;;;5.65;2.60;;;30.80;85.50;;;;;;5140496;27;20125;-82
2023/08/11 11:26:48;;;;;;;2.58;2.38;;;30.60;84.50;;;;;;5120575;27;20080;-82
2023/08/11 11:29:14;;;;;;;3.20;2.60;;;30.60;85.20;;;;;;5107543;27;20142;-82
2023/08/11 11:31:40;;;;;;;7.30;2.40;;;30.50;85.50;;;;;;5129394;27;20054;-82
2023/08/11 11:34:07;;;;;;;3.47;2.35;;;30.50;85.00;;;;;;5131662;27;20066;-81
2023/08/11 11:36:33;;;;;;;4.22;2.60;;;30.60;85.50;;;;;;5119911;27;20053;-81
2023/08/11 11:39:00;;;;;;;4.05;2.30;;;30.50;85.30;;;;;;5131973;27;20053;-81
2023/08/11 11:41:25;;;;;;;4.65;2.40;;;30.50;84.90;;;;;;5128558;27;20055;-81
2023/08/11 11:43:51;;;;;;;4.18;2.22;;;30.40;85.30;;;;;;5132391;27;20049;-82
2023/08/11 11:46:21;;;;;;;2.60;2.40;;;30.40;85.60;;;;;;5132613;27;20042;-82
2023/08/11 11:48:51;;;;;;;3.55;2.38;;;30.40;86.00;;;;;;5130797;27;20046;-82
2023/08/11 11:51:19;;;;;;;3.25;2.38;;;30.50;86.90;;;;;;5120091;27;20475;-82
2023/08/11 11:53:45;;;;;;;2.75;2.50;;;30.50;85.90;;;;;;5144180;27;20530;-82
2023/08/11 11:56:17;;;;;;;5.32;2.92;;;30.40;86.10;;;;;;5135890;27;20107;-82
2023/08/11 11:58:44;;;;;;;4.63;2.72;;;30.30;86.10;;;;;;5148478;27;20182;-82
2023/08/11 12:01:22;;;;;;;6.55;3.17;;;30.20;86.00;;;;;;5147618;27;20059;-81
2023/08/11 12:03:50;;;;;;;5.30;2.95;;;30.10;86.20;;;;;;5118891;27;20051;-82
2023/08/11 12:06:18;;;;;;;4.68;2.50;;;30.10;87.10;;;;;;5130609;27;20066;-82
2023/08/11 12:08:44;;;;;;;4.53;2.63;;;29.90;86.80;;;;;;5111151;27;20095;-82
2023/08/11 12:11:11;;;;;;;4.20;2.60;;;30.00;86.70;;;;;;5107462;27;20138;-82
2023/08/11 12:13:43;;;;;;;5.32;2.42;;;30.00;86.60;;;;;;5121391;27;20053;-83
2023/08/11 12:16:12;;;;;;;3.25;2.65;;;30.00;85.70;;;;;;5104230;27;20066;-79
2023/08/11 12:18:39;;;;;;;4.30;2.88;;;30.10;86.30;;;;;;5126944;27;20055;-83
2023/08/11 12:21:06;;;;;;;3.55;2.63;;;30.20;86.40;;;;;;5131877;27;20039;-83
2023/08/11 12:23:33;;;;;;;8.35;3.45;;;30.30;87.20;;;;;;5130451;27;20135;-83
2023/08/11 12:25:59;;;;;;;5.03;2.80;;;30.40;87.50;;;;;;5141275;27;20042;-83
2023/08/11 12:28:26;;;;;;;6.68;2.90;;;30.40;87.10;;;;;;5131998;27;20096;-81
2023/08/11 12:30:52;;;;;;;4.15;2.55;;;30.40;87.40;;;;;;5103472;27;20503;-82
2023/08/11 12:33:18;;;;;;;3.35;2.45;;;30.50;88.00;;;;;;5132757;27;20137;-82
2023/08/11 12:35:45;;;;;;;6.18;3.08;;;30.40;87.60;;;;;;5127226;27;20057;-82
2023/08/11 12:38:12;;;;;;;3.38;2.72;;;30.50;87.20;;;;;;5141657;27;20501;-82
2023/08/11 12:40:42;;;;;;;6.80;3.05;;;30.60;87.30;;;;;;5104736;28;20058;-82